createdAt,value
2018-07-26T00:00:59.151Z,980.3
2018-07-26T00:02:00.360Z,980.4
2018-07-26T00:03:01.620Z,980.4
2018-07-26T00:04:05.058Z,980.4
2018-07-26T00:05:07.719Z,980.3
2018-07-26T00:06:08.919Z,980.3
2018-07-26T00:07:10.118Z,980.4
2018-07-26T00:08:11.270Z,980.3
2018-07-26T00:09:12.434Z,980.3
2018-07-26T00:10:13.830Z,980.2
2018-07-26T00:11:15.014Z,980.3
2018-07-26T00:12:16.190Z,980.3
2018-07-26T00:13:27.325Z,980.4
2018-07-26T00:14:28.486Z,980.4
2018-07-26T00:15:29.742Z,980.3
2018-07-26T00:16:30.895Z,980.3
2018-07-26T00:17:32.425Z,980.3
2018-07-26T00:18:33.587Z,980.3
2018-07-26T00:19:34.751Z,980.3
2018-07-26T00:20:38.378Z,980.4
2018-07-26T00:21:39.658Z,980.3
2018-07-26T00:22:40.776Z,980.3
2018-07-26T00:23:41.951Z,980.4
2018-07-26T00:25:58.809Z,980.4
2018-07-26T00:26:59.978Z,980.3
2018-07-26T00:28:01.262Z,980.3
2018-07-26T00:29:02.482Z,980.3
2018-07-26T00:30:03.686Z,980.3
2018-07-26T00:31:04.918Z,980.3
2018-07-26T00:32:08.735Z,980.3
2018-07-26T00:33:09.907Z,980.3
2018-07-26T00:34:11.072Z,980.3
2018-07-26T00:35:12.273Z,980.3
2018-07-26T00:36:16.183Z,980.3
2018-07-26T00:37:20.064Z,980.3
2018-07-26T00:38:21.314Z,980.3
2018-07-26T00:39:32.790Z,980.3
2018-07-26T00:40:34.230Z,980.3
2018-07-26T00:41:35.496Z,980.3
2018-07-26T00:42:39.584Z,980.3
2018-07-26T00:43:40.768Z,980.2
2018-07-26T00:44:41.939Z,980.2
2018-07-26T00:45:43.247Z,980.2
2018-07-26T00:46:44.463Z,980.3
2018-07-26T00:47:48.307Z,980.2
2018-07-26T00:48:49.543Z,980.3
2018-07-26T00:49:50.675Z,980.3
2018-07-26T00:50:51.839Z,980.1
2018-07-26T00:51:53.067Z,980.2
2018-07-26T00:52:54.244Z,980.3
2018-07-26T00:53:55.441Z,980.2
2018-07-26T00:54:56.711Z,980.2
2018-07-26T00:55:57.890Z,980.2
2018-07-26T00:56:59.087Z,980.2
2018-07-26T00:58:00.317Z,980.2
2018-07-26T00:59:01.515Z,980.2
2018-07-26T01:00:05.151Z,980.3
2018-07-26T01:01:06.328Z,980.3
2018-07-26T01:02:09.578Z,980.3
2018-07-26T01:03:13.337Z,980.3
2018-07-26T01:04:14.528Z,980.2
2018-07-26T01:05:15.735Z,980.3
2018-07-26T01:06:17.558Z,980.3
2018-07-26T01:07:18.826Z,980.3
2018-07-26T01:08:20.258Z,980.3
2018-07-26T01:09:21.435Z,980.3
2018-07-26T01:10:22.579Z,980.3
2018-07-26T01:11:23.744Z,980.3
2018-07-26T01:12:25.178Z,980.4
2018-07-26T01:13:26.682Z,980.3
2018-07-26T01:14:27.848Z,980.3
2018-07-26T01:15:29.000Z,980.3
2018-07-26T01:16:30.267Z,980.3
2018-07-26T01:17:31.491Z,980.3
2018-07-26T01:18:32.675Z,980.3
2018-07-26T01:19:33.878Z,980.3
2018-07-26T01:20:35.255Z,980.2
2018-07-26T01:21:36.479Z,980.2
2018-07-26T01:22:37.702Z,980.2
2018-07-26T01:23:38.917Z,980.2
2018-07-26T01:24:40.062Z,980.2
2018-07-26T01:25:41.263Z,980.1
2018-07-26T01:26:42.414Z,980.2
2018-07-26T01:27:43.656Z,980.2
2018-07-26T01:28:44.815Z,980.1
2018-07-26T01:29:45.977Z,980.2
2018-07-26T01:30:47.569Z,980.1
2018-07-26T01:31:48.791Z,980.2
2018-07-26T01:32:51.328Z,980.2
2018-07-26T01:33:52.554Z,980.1
2018-07-26T01:34:53.733Z,980
2018-07-26T01:35:54.893Z,980.1
2018-07-26T01:36:56.071Z,980.1
2018-07-26T01:38:00.266Z,980.1
2018-07-26T01:39:01.449Z,980.1
2018-07-26T01:40:02.631Z,980.1
2018-07-26T01:41:03.823Z,980.1
2018-07-26T01:42:08.021Z,980.1
2018-07-26T01:43:09.241Z,980.1
2018-07-26T01:44:10.422Z,980.1
2018-07-26T01:45:11.598Z,980.1
2018-07-26T01:46:13.044Z,980.1
2018-07-26T01:47:14.288Z,980.1
2018-07-26T01:48:15.508Z,980.1
2018-07-26T01:49:16.695Z,980.1
2018-07-26T01:50:17.870Z,980
2018-07-26T01:51:22.127Z,980
2018-07-26T01:52:23.299Z,980
2018-07-26T01:53:24.554Z,980
2018-07-26T01:54:25.823Z,979.8
2018-07-26T01:55:27.002Z,980
2018-07-26T01:56:28.215Z,980
2018-07-26T01:57:29.411Z,979.9
2018-07-26T01:58:30.599Z,980
2018-07-26T01:59:31.796Z,979.9
2018-07-26T02:00:32.949Z,979.9
2018-07-26T02:01:34.185Z,979.9
2018-07-26T02:02:35.421Z,979.9
2018-07-26T02:03:36.655Z,979.9
2018-07-26T02:04:37.822Z,979.8
2018-07-26T02:05:39.012Z,980
2018-07-26T02:06:40.214Z,980
2018-07-26T02:07:42.860Z,979.8
2018-07-26T02:08:44.418Z,980
2018-07-26T02:09:45.576Z,980
2018-07-26T02:10:46.723Z,980
2018-07-26T02:11:47.909Z,980
2018-07-26T02:12:49.098Z,980
2018-07-26T02:13:50.323Z,980
2018-07-26T02:14:52.787Z,980
2018-07-26T02:15:54.333Z,980
2018-07-26T02:16:56.903Z,980
2018-07-26T02:17:58.067Z,980
2018-07-26T02:18:59.274Z,980
2018-07-26T02:20:00.428Z,980.1
2018-07-26T02:21:01.606Z,980.1
2018-07-26T02:22:06.626Z,980.1
2018-07-26T02:23:07.794Z,980.1
2018-07-26T02:24:09.033Z,980.1
2018-07-26T02:25:10.216Z,980.1
2018-07-26T02:26:14.168Z,980.1
2018-07-26T02:27:15.339Z,980
2018-07-26T02:28:16.567Z,980
2018-07-26T02:29:20.139Z,980.1
2018-07-26T02:30:21.341Z,980.1
2018-07-26T02:31:23.559Z,980.1
2018-07-26T02:32:24.748Z,980.1
2018-07-26T02:33:26.293Z,980
2018-07-26T02:34:27.483Z,980
2018-07-26T02:35:28.643Z,980
2018-07-26T02:36:29.818Z,980
2018-07-26T02:37:30.995Z,980
2018-07-26T02:38:32.180Z,980.1
2018-07-26T02:39:33.708Z,980
2018-07-26T02:40:34.885Z,980
2018-07-26T02:41:42.482Z,980
2018-07-26T02:42:43.667Z,980.1
2018-07-26T02:43:44.923Z,980
2018-07-26T02:44:46.159Z,980.1
2018-07-26T02:45:50.186Z,980.1
2018-07-26T02:46:54.063Z,980.1
2018-07-26T02:47:55.243Z,980
2018-07-26T02:48:56.413Z,980.1
2018-07-26T02:49:57.609Z,980.1
2018-07-26T02:50:58.786Z,980.1
2018-07-26T02:52:06.198Z,980.1
2018-07-26T02:53:07.383Z,980.1
2018-07-26T02:54:08.564Z,980.1
2018-07-26T02:55:12.016Z,980.1
2018-07-26T02:56:16.219Z,980.1
2018-07-26T02:57:17.390Z,980.1
2018-07-26T02:58:18.567Z,980.1
2018-07-26T02:59:19.869Z,980.2
2018-07-26T03:00:26.321Z,980.2
2018-07-26T03:01:27.560Z,980.2
2018-07-26T03:02:28.761Z,980.2
2018-07-26T03:03:32.644Z,980.2
2018-07-26T03:04:33.843Z,980.2
2018-07-26T03:05:37.238Z,980.3
2018-07-26T03:06:40.605Z,980.2
2018-07-26T03:07:41.839Z,980.3
2018-07-26T03:08:43.018Z,980.3
2018-07-26T03:09:44.184Z,980.3
2018-07-26T03:10:45.698Z,980.3
2018-07-26T03:11:46.875Z,980.3
2018-07-26T03:12:48.042Z,980.3
2018-07-26T03:13:49.224Z,980.3
2018-07-26T03:14:50.422Z,980.3
2018-07-26T03:15:52.652Z,980.3
2018-07-26T03:16:53.836Z,980.4
2018-07-26T03:17:54.992Z,980.4
2018-07-26T03:18:56.155Z,980.3
2018-07-26T03:19:57.358Z,980.3
2018-07-26T03:20:58.560Z,980.3
2018-07-26T03:21:59.712Z,980.3
2018-07-26T03:23:00.894Z,980.3
2018-07-26T03:24:04.832Z,980.2
2018-07-26T03:25:06.044Z,980.1
2018-07-26T03:26:07.437Z,980.2
2018-07-26T03:27:09.493Z,980.1
2018-07-26T03:28:10.841Z,980.3
2018-07-26T03:29:12.017Z,980.2
2018-07-26T03:30:13.196Z,980.2
2018-07-26T03:31:17.471Z,980.2
2018-07-26T03:32:18.725Z,980.2
2018-07-26T03:33:23.972Z,980.2
2018-07-26T03:34:25.214Z,980.2
2018-07-26T03:35:26.426Z,980.2
2018-07-26T03:36:27.648Z,980.2
2018-07-26T03:37:28.903Z,980.1
2018-07-26T03:38:30.086Z,980.2
2018-07-26T03:39:31.242Z,980.2
2018-07-26T03:40:32.410Z,980.2
2018-07-26T03:41:33.706Z,980.3
2018-07-26T03:42:34.893Z,980.3
2018-07-26T03:43:39.308Z,980.2
2018-07-26T03:44:40.675Z,980.3
2018-07-26T03:45:41.878Z,980.3
2018-07-26T03:46:45.226Z,980.3
2018-07-26T03:47:49.216Z,980.3
2018-07-26T03:48:50.390Z,980.3
2018-07-26T03:49:51.813Z,980.3
2018-07-26T03:50:52.967Z,980.3
2018-07-26T03:51:54.164Z,980.3
2018-07-26T03:52:57.115Z,980.4
2018-07-26T03:53:58.306Z,980.4
2018-07-26T03:54:59.459Z,980.4
2018-07-26T03:56:00.620Z,980.4
2018-07-26T03:57:01.907Z,980.4
2018-07-26T03:58:05.453Z,980.4
2018-07-26T03:59:06.619Z,980.4
2018-07-26T04:00:10.034Z,980.4
2018-07-26T04:01:13.961Z,980.4
2018-07-26T04:02:15.531Z,980.4
2018-07-26T04:03:16.773Z,980.4
2018-07-26T04:04:17.919Z,980.4
2018-07-26T04:05:19.106Z,980.4
2018-07-26T04:06:20.274Z,980.4
2018-07-26T04:07:21.503Z,980.4
2018-07-26T04:08:22.664Z,980.4
2018-07-26T04:09:23.847Z,980.4
2018-07-26T04:10:25.020Z,980.4
2018-07-26T04:11:28.684Z,980.4
2018-07-26T04:12:29.942Z,980.4
2018-07-26T04:13:31.121Z,980.4
2018-07-26T04:14:32.307Z,980.4
2018-07-26T04:15:33.482Z,980.4
2018-07-26T04:16:34.651Z,980.5
2018-07-26T04:17:35.863Z,980.4
2018-07-26T04:18:37.058Z,980.4
2018-07-26T04:19:38.272Z,980.4
2018-07-26T04:20:39.442Z,980.4
2018-07-26T04:21:40.649Z,980.4
2018-07-26T04:22:41.830Z,980.4
2018-07-26T04:23:45.506Z,980.5
2018-07-26T04:24:46.709Z,980.4
2018-07-26T04:25:48.614Z,980.3
2018-07-26T04:26:52.001Z,980.4
2018-07-26T04:27:53.241Z,980.5
2018-07-26T04:28:54.419Z,980.5
2018-07-26T04:29:55.605Z,980.5
2018-07-26T04:30:58.450Z,980.5
2018-07-26T04:31:59.752Z,980.5
2018-07-26T04:33:01.551Z,980.6
2018-07-26T04:34:02.780Z,980.6
2018-07-26T04:35:03.942Z,980.6
2018-07-26T04:36:07.874Z,980.6
2018-07-26T04:37:11.846Z,980.7
2018-07-26T04:38:13.089Z,980.7
2018-07-26T04:39:16.445Z,980.8
2018-07-26T04:40:17.660Z,980.8
2018-07-26T04:41:19.329Z,980.8
2018-07-26T04:42:20.522Z,980.8
2018-07-26T04:43:21.974Z,980.9
2018-07-26T04:44:23.172Z,980.9
2018-07-26T04:45:27.784Z,981
2018-07-26T04:46:28.956Z,981.1
2018-07-26T04:47:30.175Z,981.1
2018-07-26T04:48:31.383Z,981.2
2018-07-26T04:49:32.546Z,981.2
2018-07-26T04:50:33.742Z,981.2
2018-07-26T04:51:34.926Z,981.3
2018-07-26T04:52:36.106Z,981.3
2018-07-26T04:53:37.618Z,981.4
2018-07-26T04:54:38.869Z,981.4
2018-07-26T04:55:40.199Z,981.5
2018-07-26T04:56:41.703Z,981.5
2018-07-26T04:57:42.874Z,981.5
2018-07-26T04:58:44.110Z,981.7
2018-07-26T04:59:45.283Z,981.7
2018-07-26T05:00:46.477Z,981.8
2018-07-26T05:01:47.726Z,981.8
2018-07-26T05:02:50.208Z,981.8
2018-07-26T05:03:51.440Z,981.9
2018-07-26T05:04:52.614Z,982
2018-07-26T05:05:53.782Z,982
2018-07-26T05:06:55.023Z,982.1
2018-07-26T05:07:56.214Z,982.1
2018-07-26T05:08:59.534Z,982.1
2018-07-26T05:10:00.736Z,982.2
2018-07-26T05:11:08.063Z,982.1
2018-07-26T05:12:09.367Z,982.2
2018-07-26T05:13:10.819Z,982.2
2018-07-26T05:14:14.407Z,982.2
2018-07-26T05:15:15.587Z,982.3
2018-07-26T05:16:16.831Z,982.3
2018-07-26T05:17:18.019Z,982.3
2018-07-26T05:18:19.270Z,982.3
2018-07-26T05:19:21.788Z,982.4
2018-07-26T05:20:25.731Z,982.5
2018-07-26T05:21:27.640Z,982.5
2018-07-26T05:22:28.823Z,982.5
2018-07-26T05:23:29.990Z,982.6
2018-07-26T05:24:31.190Z,982.6
2018-07-26T05:25:35.119Z,982.6
2018-07-26T05:26:36.336Z,982.7
2018-07-26T05:27:39.245Z,982.7
2018-07-26T05:28:40.491Z,982.8
2018-07-26T05:29:41.707Z,982.8
2018-07-26T05:30:42.971Z,982.8
2018-07-26T05:31:44.129Z,982.9
2018-07-26T05:32:45.351Z,982.9
2018-07-26T05:33:46.566Z,982.9
2018-07-26T05:34:47.900Z,983
2018-07-26T05:35:51.994Z,983
2018-07-26T05:36:54.625Z,983
2018-07-26T05:38:01.386Z,983
2018-07-26T05:39:04.221Z,983
2018-07-26T05:40:07.063Z,983.2
2018-07-26T05:41:09.673Z,983.2
2018-07-26T05:42:14.494Z,983.1
2018-07-26T05:43:17.540Z,983.3
2018-07-26T05:44:22.837Z,983.2
2018-07-26T05:45:25.600Z,983.3
2018-07-26T05:46:28.251Z,983.3
2018-07-26T05:47:41.191Z,983.3
2018-07-26T05:48:48.120Z,983.4
2018-07-26T05:49:50.685Z,983.4
2018-07-26T05:50:53.246Z,983.5
2018-07-26T05:51:55.745Z,983.5
2018-07-26T05:53:02.910Z,983.5
2018-07-26T05:54:08.956Z,983.5
2018-07-26T05:55:11.503Z,983.6
2018-07-26T05:56:14.279Z,983.7
2018-07-26T05:57:18.067Z,983.7
2018-07-26T05:58:20.634Z,983.8
2018-07-26T05:59:23.509Z,983.7
2018-07-26T06:00:26.360Z,983.8
2018-07-26T06:01:30.431Z,983.9
2018-07-26T06:02:33.342Z,983.9
2018-07-26T06:03:38.524Z,984
2018-07-26T06:04:43.799Z,984
2018-07-26T06:05:46.202Z,984
2018-07-26T06:06:48.794Z,984
2018-07-26T06:07:50.790Z,984
2018-07-26T06:08:55.216Z,984
2018-07-26T06:09:56.645Z,984.1
2018-07-26T06:11:00.092Z,984.1
2018-07-26T06:12:01.381Z,984.1
2018-07-26T06:13:02.622Z,984
2018-07-26T06:14:06.106Z,983.9
2018-07-26T06:15:08.720Z,984.1
2018-07-26T06:16:13.512Z,984.1
2018-07-26T06:17:16.142Z,984.1
2018-07-26T06:18:18.676Z,984.1
2018-07-26T06:19:19.892Z,984
2018-07-26T06:20:21.564Z,984.2
2018-07-26T06:21:22.814Z,984.2
2018-07-26T06:22:24.050Z,984.3
2018-07-26T06:23:25.298Z,984.3
2018-07-26T06:24:26.535Z,984.2
2018-07-26T06:25:27.765Z,984.2
2018-07-26T06:26:28.930Z,984.4
2018-07-26T06:27:30.285Z,984.3
2018-07-26T06:28:31.482Z,984.3
2018-07-26T06:29:32.854Z,984.4
2018-07-26T06:30:34.278Z,984.4
2018-07-26T06:31:36.748Z,984.5
2018-07-26T06:32:37.987Z,984.4
2018-07-26T06:33:39.288Z,984.3
2018-07-26T06:34:44.805Z,984.3
2018-07-26T06:35:48.411Z,984.4
2018-07-26T06:36:49.579Z,984.6
2018-07-26T06:37:50.902Z,984.5
2018-07-26T06:38:53.410Z,984.4
2018-07-26T06:39:54.586Z,984.4
2018-07-26T06:40:59.292Z,984.6
2018-07-26T06:42:01.847Z,984.6
2018-07-26T06:43:03.299Z,984.7
2018-07-26T06:44:05.754Z,984.7
2018-07-26T06:45:06.948Z,984.7
2018-07-26T06:46:08.197Z,984.7
2018-07-26T06:47:10.653Z,984.7
2018-07-26T06:48:11.872Z,984.6
2018-07-26T06:49:13.084Z,984.7
2018-07-26T06:50:14.298Z,984.7
2018-07-26T06:51:15.459Z,984.8
2018-07-26T06:52:17.594Z,984.7
2018-07-26T06:53:18.974Z,984.8
2018-07-26T06:54:20.156Z,984.6
2018-07-26T06:55:21.349Z,984.7
2018-07-26T06:56:22.582Z,984.8
2018-07-26T06:57:23.798Z,984.9
2018-07-26T06:58:25.012Z,984.9
2018-07-26T06:59:26.172Z,984.9
2018-07-26T07:00:28.331Z,984.9
2018-07-26T07:01:30.871Z,984.9
2018-07-26T07:02:34.477Z,984.9
2018-07-26T07:03:35.842Z,984.9
2018-07-26T07:04:38.085Z,984.7
2018-07-26T07:05:39.332Z,984.9
2018-07-26T07:06:40.754Z,984.6
2018-07-26T07:07:45.112Z,984.8
2018-07-26T07:08:46.293Z,984.9
2018-07-26T07:09:47.490Z,984.9
2018-07-26T07:10:48.654Z,984.9
2018-07-26T07:11:49.827Z,984.9
2018-07-26T07:12:51.066Z,984.9
2018-07-26T07:13:52.336Z,984.8
2018-07-26T07:14:53.553Z,984.9
2018-07-26T07:15:54.824Z,984.9
2018-07-26T07:16:59.405Z,984.8
2018-07-26T07:18:05.572Z,984.9
2018-07-26T07:19:09.454Z,985.1
2018-07-26T07:20:10.651Z,985.2
2018-07-26T07:21:11.830Z,985.2
2018-07-26T07:22:13.014Z,985.2
2018-07-26T07:23:14.268Z,985.1
2018-07-26T07:24:15.518Z,985.2
2018-07-26T07:25:16.857Z,985.2
2018-07-26T07:26:20.542Z,985.1
2018-07-26T07:27:21.870Z,985.2
2018-07-26T07:28:25.579Z,985.3
2018-07-26T07:29:26.882Z,985.2
2018-07-26T07:30:28.115Z,985.2
2018-07-26T07:31:29.373Z,985.2
2018-07-26T07:32:30.541Z,985.1
2018-07-26T07:33:31.754Z,985.4
2018-07-26T07:34:35.128Z,985.3
2018-07-26T07:35:36.348Z,985.3
2018-07-26T07:36:37.901Z,985.1
2018-07-26T07:37:44.210Z,985.2
2018-07-26T07:38:45.437Z,985.3
2018-07-26T07:39:46.692Z,985.3
2018-07-26T07:40:50.226Z,985.3
2018-07-26T07:41:51.761Z,985.4
2018-07-26T07:42:53.473Z,985.3
2018-07-26T07:43:56.872Z,985.4
2018-07-26T07:44:58.147Z,985.4
2018-07-26T07:45:59.301Z,985.3
2018-07-26T07:47:00.608Z,985.2
2018-07-26T07:48:03.029Z,985.1
2018-07-26T07:49:04.194Z,985.3
2018-07-26T07:50:05.626Z,985.1
2018-07-26T07:51:06.835Z,985.3
2018-07-26T07:52:08.219Z,985.4
2018-07-26T07:53:09.468Z,985.4
2018-07-26T07:54:10.714Z,985.5
2018-07-26T07:55:15.552Z,985.4
2018-07-26T07:56:17.735Z,985.6
2018-07-26T07:57:22.128Z,985.5
2018-07-26T07:58:23.378Z,985.4
2018-07-26T07:59:25.667Z,985.5
2018-07-26T08:00:26.941Z,985.3
2018-07-26T08:01:29.179Z,985.4
2018-07-26T08:02:30.343Z,985.6
2018-07-26T08:03:31.526Z,985.5
2018-07-26T08:04:32.685Z,985.5
2018-07-26T08:05:34.814Z,985.5
2018-07-26T08:06:36.121Z,985.5
2018-07-26T08:07:37.702Z,985.5
2018-07-26T08:08:38.915Z,985.6
2018-07-26T08:09:43.893Z,985.6
2018-07-26T08:10:45.129Z,985.4
2018-07-26T08:11:49.316Z,985.4
2018-07-26T08:12:54.260Z,985.6
2018-07-26T08:13:58.408Z,985.6
2018-07-26T08:14:59.646Z,985.5
2018-07-26T08:16:01.258Z,985.3
2018-07-26T08:17:02.953Z,985.3
2018-07-26T08:18:04.481Z,985.5
2018-07-26T08:19:05.727Z,985.5
2018-07-26T08:20:07.126Z,985.5
2018-07-26T08:21:08.726Z,985.5
2018-07-26T08:22:09.948Z,985.6
2018-07-26T08:23:11.171Z,985.7
2018-07-26T08:24:12.953Z,985.6
2018-07-26T08:25:17.570Z,985.6
2018-07-26T08:26:18.814Z,985.7
2018-07-26T08:27:20.145Z,985.7
2018-07-26T08:28:21.427Z,985.6
2018-07-26T08:29:22.731Z,985.7
2018-07-26T08:30:26.326Z,985.7
2018-07-26T08:31:28.857Z,985.7
2018-07-26T08:32:30.042Z,985.6
2018-07-26T08:33:31.343Z,985.6
2018-07-26T08:34:32.666Z,985.7
2018-07-26T08:35:33.896Z,985.9
2018-07-26T08:36:35.131Z,985.6
2018-07-26T08:37:36.383Z,985.7
2018-07-26T08:38:37.838Z,985.7
2018-07-26T08:39:39.067Z,985.5
2018-07-26T08:40:40.372Z,985.5
2018-07-26T08:41:41.693Z,985.5
2018-07-26T08:42:45.456Z,985.4
2018-07-26T08:43:47.483Z,985.7
2018-07-26T08:44:48.919Z,985.6
2018-07-26T08:45:50.144Z,985.6
2018-07-26T08:46:51.335Z,985.7
2018-07-26T08:47:56.686Z,985.7
2018-07-26T08:48:57.931Z,985.7
2018-07-26T08:49:59.297Z,985.7
2018-07-26T08:51:00.569Z,985.5
2018-07-26T08:52:03.851Z,985.6
2018-07-26T08:53:05.112Z,985.5
2018-07-26T08:54:06.815Z,985.7
2018-07-26T08:55:08.562Z,985.6
2018-07-26T08:56:12.221Z,985.5
2018-07-26T08:57:15.820Z,985.6
2018-07-26T08:58:18.221Z,985.7
2018-07-26T08:59:19.423Z,985.8
2018-07-26T09:00:20.641Z,985.8
2018-07-26T09:01:21.840Z,985.7
2018-07-26T09:02:23.106Z,985.6
2018-07-26T09:03:24.373Z,985.6
2018-07-26T09:04:25.626Z,985.6
2018-07-26T09:05:26.781Z,985.6
2018-07-26T09:06:28.048Z,985.5
2018-07-26T09:07:29.269Z,985.3
2018-07-26T09:08:30.538Z,985.3
2018-07-26T09:09:36.634Z,985.4
2018-07-26T09:10:42.252Z,985.3
2018-07-26T09:11:43.429Z,985.4
2018-07-26T09:12:44.685Z,985.4
2018-07-26T09:13:45.959Z,985.6
2018-07-26T09:14:47.133Z,985.6
2018-07-26T09:15:49.447Z,985.4
2018-07-26T09:16:50.667Z,985.5
2018-07-26T09:17:51.939Z,985.4
2018-07-26T09:18:53.139Z,985.3
2018-07-26T09:19:55.183Z,985.3
2018-07-26T09:20:56.374Z,985.1
2018-07-26T09:21:57.646Z,985.1
2018-07-26T09:23:01.146Z,985.1
2018-07-26T09:24:02.315Z,984.9
2018-07-26T09:25:04.559Z,984.9
2018-07-26T09:26:05.840Z,985
2018-07-26T09:27:07.191Z,985.6
2018-07-26T09:28:09.525Z,985.5
2018-07-26T09:29:10.803Z,985.1
2018-07-26T09:30:12.990Z,985
2018-07-26T09:31:14.487Z,984.8
2018-07-26T09:32:15.748Z,984.7
2018-07-26T09:33:17.286Z,984.7
2018-07-26T09:34:18.553Z,984.6
2018-07-26T09:35:19.744Z,984.7
2018-07-26T09:36:21.255Z,985.1
2018-07-26T09:37:22.490Z,984.9
2018-07-26T09:38:24.712Z,984.7
2018-07-26T09:39:25.923Z,984.5
2018-07-26T09:40:29.465Z,984.5
2018-07-26T09:41:33.092Z,984.6
2018-07-26T09:42:34.423Z,984.7
2018-07-26T09:43:35.640Z,984.6
2018-07-26T09:44:36.858Z,984.6
2018-07-26T09:45:40.422Z,984.5
2018-07-26T09:46:41.687Z,984.5
2018-07-26T09:47:42.896Z,984.4
2018-07-26T09:48:45.269Z,984.2
2018-07-26T09:49:46.756Z,984.1
2018-07-26T09:50:48.215Z,984.3
2018-07-26T09:51:49.506Z,984.4
2018-07-26T09:52:50.833Z,984.4
2018-07-26T09:53:54.473Z,984.2
2018-07-26T09:54:58.623Z,984.1
2018-07-26T09:56:04.364Z,984.1
2018-07-26T09:57:05.577Z,984.1
2018-07-26T09:58:06.793Z,984.1
2018-07-26T09:59:08.258Z,984.3
2018-07-26T10:00:10.853Z,984.1
2018-07-26T10:01:16.115Z,984.3
2018-07-26T10:02:19.944Z,984.1
2018-07-26T10:03:21.462Z,984.1
2018-07-26T10:04:24.904Z,984.4
2018-07-26T10:05:26.130Z,984.2
2018-07-26T10:06:27.555Z,984.5
2018-07-26T10:07:29.238Z,984.3
2018-07-26T10:08:30.518Z,984.3
2018-07-26T10:09:31.955Z,984.3
2018-07-26T10:10:34.139Z,984.1
2018-07-26T10:11:35.534Z,984
2018-07-26T10:12:36.927Z,984.2
2018-07-26T10:13:41.325Z,984.1
2018-07-26T10:14:43.558Z,984.2
2018-07-26T10:15:46.839Z,984.3
2018-07-26T10:16:48.037Z,984.5
2018-07-26T10:17:49.543Z,984.3
2018-07-26T10:18:50.761Z,984.2
2018-07-26T10:19:52.028Z,984.2
2018-07-26T10:20:55.483Z,984.2
2018-07-26T10:22:04.676Z,984.3
2018-07-26T10:23:05.870Z,984.4
2018-07-26T10:24:08.549Z,984.1
2018-07-26T10:25:09.829Z,984.1
2018-07-26T10:26:13.164Z,984.1
2018-07-26T10:27:14.403Z,984
2018-07-26T10:28:16.730Z,983.8
2018-07-26T10:29:18.178Z,983.9
2018-07-26T10:30:19.778Z,983.9
2018-07-26T10:31:21.172Z,983.8
2018-07-26T10:32:22.437Z,984
2018-07-26T10:33:23.870Z,984
2018-07-26T10:34:28.323Z,984.1
2018-07-26T10:35:30.926Z,984
2018-07-26T10:36:34.518Z,984
2018-07-26T10:37:35.787Z,984.1
2018-07-26T10:38:37.402Z,984
2018-07-26T10:39:38.742Z,984
2018-07-26T10:40:40.237Z,983.9
2018-07-26T10:41:41.519Z,984
2018-07-26T10:42:42.947Z,983.7
2018-07-26T10:43:44.333Z,983.6
2018-07-26T10:44:45.550Z,983.7
2018-07-26T10:45:46.813Z,983.6
2018-07-26T10:46:49.525Z,983.5
2018-07-26T10:47:55.619Z,983.6
2018-07-26T10:49:03.313Z,983.7
2018-07-26T10:50:04.710Z,983.7
2018-07-26T10:51:08.020Z,983.7
2018-07-26T10:52:09.500Z,983.9
2018-07-26T10:53:10.674Z,983.8
2018-07-26T10:54:11.926Z,983.6
2018-07-26T10:55:15.869Z,983.7
2018-07-26T10:56:18.251Z,983.7
2018-07-26T10:57:24.643Z,983.7
2018-07-26T10:58:26.898Z,983.6
2018-07-26T10:59:33.322Z,983.5
2018-07-26T11:00:34.512Z,983.4
2018-07-26T11:01:38.223Z,983.6
2018-07-26T11:02:40.742Z,983.5
2018-07-26T11:03:42.288Z,983.5
2018-07-26T11:04:53.747Z,983.4
2018-07-26T11:05:55.009Z,983.5
2018-07-26T11:06:56.318Z,983.4
2018-07-26T11:07:57.535Z,983.6
2018-07-26T11:08:59.223Z,983.4
2018-07-26T11:10:01.128Z,983.5
2018-07-26T11:11:04.829Z,983.3
2018-07-26T11:12:06.215Z,983.4
2018-07-26T11:13:07.645Z,983.3
2018-07-26T11:14:11.297Z,983.3
2018-07-26T11:15:12.590Z,983.3
2018-07-26T11:16:13.739Z,983.3
2018-07-26T11:17:18.592Z,983.1
2018-07-26T11:18:23.702Z,983.2
2018-07-26T11:19:24.895Z,983.1
2018-07-26T11:20:26.483Z,983.2
2018-07-26T11:21:27.702Z,983.3
2018-07-26T11:22:31.513Z,983.3
2018-07-26T11:23:32.769Z,983.2
2018-07-26T11:24:34.033Z,983.2
2018-07-26T11:25:38.484Z,982.9
2018-07-26T11:26:42.255Z,983.2
2018-07-26T11:27:43.531Z,982.8
2018-07-26T11:28:45.994Z,983
2018-07-26T11:29:47.249Z,983
2018-07-26T11:30:48.564Z,982.9
2018-07-26T11:31:49.838Z,982.9
2018-07-26T11:32:51.091Z,982.9
2018-07-26T11:33:56.535Z,982.9
2018-07-26T11:34:57.753Z,983
2018-07-26T11:35:59.097Z,982.7
2018-07-26T11:37:00.337Z,982.8
2018-07-26T11:38:03.976Z,982.4
2018-07-26T11:39:05.287Z,982.8
2018-07-26T11:40:06.580Z,982.9
2018-07-26T11:41:07.797Z,982.4
2018-07-26T11:42:11.882Z,982.6
2018-07-26T11:43:13.138Z,982.4
2018-07-26T11:44:16.986Z,982.6
2018-07-26T11:45:18.178Z,982.7
2018-07-26T11:46:19.418Z,982.7
2018-07-26T11:47:20.622Z,982.7
2018-07-26T11:48:21.833Z,982.7
2018-07-26T11:49:33.717Z,982.6
2018-07-26T11:50:35.011Z,982.7
2018-07-26T11:51:38.302Z,982.8
2018-07-26T11:52:40.070Z,982.8
2018-07-26T11:53:44.390Z,982.8
2018-07-26T11:54:45.562Z,982.3
2018-07-26T11:55:48.962Z,982.3
2018-07-26T11:56:51.318Z,982.3
2018-07-26T11:57:52.513Z,982.4
2018-07-26T11:58:57.216Z,982.6
2018-07-26T11:59:58.818Z,982.4
2018-07-26T12:01:05.255Z,982.3
2018-07-26T12:02:06.580Z,982.5
2018-07-26T12:03:07.830Z,982.3
2018-07-26T12:04:09.206Z,982.1
2018-07-26T12:05:14.440Z,982.1
2018-07-26T12:06:17.760Z,982.1
2018-07-26T12:07:38.750Z,982.1
2018-07-26T12:08:42.620Z,982
2018-07-26T12:09:46.493Z,982.2
2018-07-26T12:10:50.087Z,982.1
2018-07-26T12:11:52.294Z,982.3
2018-07-26T12:12:53.521Z,982.3
2018-07-26T12:13:54.942Z,982.4
2018-07-26T12:14:56.249Z,982.4
2018-07-26T12:15:58.486Z,982.3
2018-07-26T12:17:01.892Z,982.3
2018-07-26T12:18:03.188Z,981.8
2018-07-26T12:19:07.141Z,981.9
2018-07-26T12:20:08.445Z,981.6
2018-07-26T12:21:11.830Z,981.7
2018-07-26T12:22:13.054Z,982.1
2018-07-26T12:23:14.356Z,981.9
2018-07-26T12:24:15.554Z,982.1
2018-07-26T12:25:17.250Z,982
2018-07-26T12:26:22.589Z,982
2018-07-26T12:27:24.102Z,982
2018-07-26T12:28:25.302Z,981.8
2018-07-26T12:29:26.823Z,982
2018-07-26T12:30:28.100Z,981.9
2018-07-26T12:31:30.259Z,981.9
2018-07-26T12:32:31.467Z,982
2018-07-26T12:33:35.136Z,981.8
2018-07-26T12:34:36.418Z,981.6
2018-07-26T12:35:37.882Z,981.5
2018-07-26T12:36:42.001Z,981.7
2018-07-26T12:37:43.708Z,981.3
2018-07-26T12:38:47.696Z,981.8
2018-07-26T12:39:48.987Z,981.9
2018-07-26T12:40:50.301Z,981.5
2018-07-26T12:41:52.833Z,981.6
2018-07-26T12:42:54.011Z,981.6
2018-07-26T12:43:55.204Z,981.4
2018-07-26T12:44:58.230Z,981.4
2018-07-26T12:46:02.360Z,981.2
2018-07-26T12:47:04.019Z,981.5
2018-07-26T12:48:05.403Z,981.4
2018-07-26T12:49:07.001Z,981.5
2018-07-26T12:50:08.242Z,981.6
2018-07-26T12:51:09.627Z,981.2
2018-07-26T12:52:10.973Z,981.4
2018-07-26T12:53:12.235Z,981.4
2018-07-26T12:54:14.374Z,981.4
2018-07-26T12:55:15.580Z,981.3
2018-07-26T12:56:19.291Z,981.5
2018-07-26T12:57:20.506Z,981.1
2018-07-26T12:59:40.119Z,981.2
2018-07-26T13:00:41.368Z,981.3
2018-07-26T13:01:42.883Z,980.9
2018-07-26T13:02:50.980Z,980.8
2018-07-26T13:03:52.224Z,980.8
2018-07-26T13:04:53.689Z,981
2018-07-26T13:05:55.031Z,981.1
2018-07-26T13:06:56.344Z,981.4
2018-07-26T13:07:57.876Z,981.2
2018-07-26T13:09:01.189Z,980.9
2018-07-26T13:10:02.612Z,980.9
2018-07-26T13:11:05.096Z,981.1
2018-07-26T13:12:07.216Z,981.1
2018-07-26T13:13:08.715Z,981.1
2018-07-26T13:14:10.035Z,981
2018-07-26T13:15:11.270Z,981.3
2018-07-26T13:16:12.476Z,981
2018-07-26T13:17:13.720Z,980.9
2018-07-26T13:18:17.454Z,981.1
2018-07-26T13:19:18.722Z,981.2
2018-07-26T13:20:20.118Z,981.3
2018-07-26T13:21:21.393Z,981.2
2018-07-26T13:22:22.657Z,981
2018-07-26T13:23:23.884Z,981
2018-07-26T13:24:26.235Z,981.1
2018-07-26T13:25:27.446Z,981.1
2018-07-26T13:26:31.552Z,981.2
2018-07-26T13:27:32.779Z,981.1